KJCT - Junction/Kimble Cnty, TX, US

Issued at 2327 UTC 14 Aug 2020
Updated at 0212 UTC 15 Aug 2020
Potential Impact None Slight Moderate High
Time0151Z 15/03Z 15/04Z 15/05Z 15/06Z 15/07Z 15/08Z 15/09Z 15/10Z 15/11Z 15/12Z 15/13Z 15/14Z 15/15Z>>
Type OBS PRVL PRVL PRVL PRVL PRVL PRVL PRVL PRVL PRVL PRVL PRVL PRVL PRVL
VIS 10 >6 >6 >6 >6 >6 >6 >6 >6 >6 >6 >6 >6 >6
CIG -- -- -- -- -- -- -- -- -- -- -- -- -- --
Cover CLR SKC SKC SKC SKC SKC SKC SKC SKC SKC SKC SKC SKC SKC
FltCat VFR VFR VFR VFR VFR VFR VFR VFR VFR VFR VFR VFR VFR VFR
WX -- -- -- -- -- -- -- -- -- -- -- -- -- --
WDir 200 170 170 170 170 170 170 170 170 170 170 170 170 170
WSpd 3 6 6 6 6 6 6 6 6 6 6 6 6 6
WGst -- -- -- -- -- -- -- -- -- -- -- -- -- --
Raw TAF
KJCT 142327Z 1500/1524 19010G15KT P6SM SKC
  FM150100 17006KT P6SM SKC


Raw METAR
KJCT 150151Z AUTO 20003KT 10SM CLR 36/15 A2989 RMK AO2 SLP078 T03560150
KJCT 150051Z AUTO 19007KT 10SM CLR 38/14 A2987 RMK AO2 SLP072 T03830144
KJCT 142351Z AUTO 20006KT 10SM CLR 41/15 A2986 RMK AO2 SLP067 T04060150 10417 20356 56014

METAR Board
Radar Display
Forecast Discussion
For situational awareness. Not to be used for flight planning purposes.